createdAt,value
2019-06-08T00:00:22.889Z,13.90
2019-06-08T00:02:51.602Z,13.90
2019-06-08T00:05:21.071Z,13.90
2019-06-08T00:07:50.169Z,14.00
2019-06-08T00:10:23.583Z,13.90
2019-06-08T00:12:49.550Z,14.00
2019-06-08T00:15:18.632Z,14.00
2019-06-08T00:17:47.399Z,14.00
2019-06-08T00:20:17.673Z,14.00
2019-06-08T00:22:46.376Z,14.00
2019-06-08T00:25:15.802Z,14.00
2019-06-08T00:27:44.532Z,14.00
2019-06-08T00:30:13.603Z,14.00
2019-06-08T00:32:42.213Z,14.00
2019-06-08T00:35:11.034Z,14.00
2019-06-08T00:37:39.509Z,14.00
2019-06-08T00:40:09.083Z,14.10
2019-06-08T00:42:37.629Z,14.00
2019-06-08T00:45:09.379Z,14.00
2019-06-08T00:47:47.350Z,14.00
2019-06-08T00:50:09.188Z,14.00
2019-06-08T00:52:37.892Z,13.90
2019-06-08T00:55:09.475Z,14.00
2019-06-08T00:57:38.180Z,14.00
2019-06-08T01:00:10.802Z,14.00
2019-06-08T01:02:37.628Z,14.00
2019-06-08T01:05:07.720Z,14.00
2019-06-08T01:07:36.493Z,14.00
2019-06-08T01:10:08.270Z,14.00
2019-06-08T01:12:37.155Z,14.00
2019-06-08T01:15:07.116Z,14.00
2019-06-08T01:17:35.842Z,14.00
2019-06-08T01:20:07.125Z,14.00
2019-06-08T01:22:35.751Z,14.00
2019-06-08T01:25:05.450Z,14.10
2019-06-08T01:27:34.081Z,14.00
2019-06-08T01:30:03.222Z,14.00
2019-06-08T01:32:31.730Z,14.00
2019-06-08T01:35:00.268Z,14.00
2019-06-08T01:37:29.130Z,14.00
2019-06-08T01:39:57.977Z,14.00
2019-06-08T01:42:27.691Z,14.00
2019-06-08T01:44:56.327Z,14.00
2019-06-08T01:47:26.115Z,14.00
2019-06-08T01:49:54.809Z,14.00
2019-06-08T01:52:24.548Z,13.90
2019-06-08T01:54:53.185Z,14.00
2019-06-08T01:57:23.055Z,13.90
2019-06-08T01:59:51.707Z,13.90
2019-06-08T02:02:20.335Z,13.90
2019-06-08T02:04:49.814Z,13.90
2019-06-08T02:07:18.315Z,13.90
2019-06-08T02:09:46.874Z,13.90
2019-06-08T02:12:15.350Z,14.00
2019-06-08T02:14:43.978Z,13.90
2019-06-08T02:17:12.638Z,13.90
2019-06-08T02:19:41.331Z,13.90
2019-06-08T02:22:10.014Z,13.70
2019-06-08T02:24:39.615Z,13.70
2019-06-08T02:27:08.326Z,13.60
2019-06-08T02:29:36.929Z,13.60
2019-06-08T02:32:05.548Z,13.60
2019-06-08T02:34:35.996Z,13.60
2019-06-08T02:37:05.818Z,13.50
2019-06-08T02:39:35.639Z,13.50
2019-06-08T02:42:04.759Z,13.40
2019-06-08T02:44:34.417Z,13.30
2019-06-08T02:47:03.163Z,13.40
2019-06-08T02:49:33.198Z,13.40
2019-06-08T02:52:01.942Z,13.50
2019-06-08T02:54:32.515Z,13.50
2019-06-08T02:57:05.836Z,13.50
2019-06-08T02:59:38.580Z,13.50
2019-06-08T03:02:08.752Z,13.50
2019-06-08T03:04:38.990Z,13.30
2019-06-08T03:07:10.467Z,13.30
2019-06-08T03:09:41.000Z,13.20
2019-06-08T03:12:09.905Z,13.10
2019-06-08T03:14:42.008Z,13.10
2019-06-08T03:17:10.859Z,13.10
2019-06-08T03:19:39.981Z,13.20
2019-06-08T03:22:10.905Z,13.10
2019-06-08T03:24:41.226Z,13.00
2019-06-08T03:27:10.440Z,12.90
2019-06-08T03:29:41.264Z,12.80
2019-06-08T03:32:09.403Z,12.80
2019-06-08T03:34:45.771Z,12.80
2019-06-08T03:37:08.285Z,12.80
2019-06-08T03:39:37.068Z,12.80
2019-06-08T03:42:06.207Z,12.80
2019-06-08T03:44:36.095Z,12.80
2019-06-08T03:47:05.153Z,12.80
2019-06-08T03:49:44.944Z,12.90
2019-06-08T03:52:04.145Z,12.80
2019-06-08T03:54:32.762Z,12.80
2019-06-08T03:57:01.383Z,12.80
2019-06-08T03:59:30.014Z,12.80
2019-06-08T04:01:58.558Z,12.70
2019-06-08T04:04:27.311Z,12.80
2019-06-08T04:06:55.974Z,12.80
2019-06-08T04:09:24.629Z,12.80
2019-06-08T04:11:53.311Z,12.90
2019-06-08T04:14:21.886Z,12.90
2019-06-08T04:16:50.474Z,12.80
2019-06-08T04:19:19.306Z,12.80
2019-06-08T04:21:47.839Z,12.80
2019-06-08T04:24:16.499Z,12.80
2019-06-08T04:26:47.168Z,12.80
2019-06-08T04:29:16.132Z,12.80
2019-06-08T04:31:46.037Z,12.80
2019-06-08T04:34:14.806Z,12.80
2019-06-08T04:36:44.101Z,12.80
2019-06-08T04:39:13.676Z,12.70
2019-06-08T04:41:42.759Z,12.70
2019-06-08T04:44:13.078Z,12.70
2019-06-08T04:46:43.279Z,12.70
2019-06-08T04:49:11.955Z,12.80
2019-06-08T04:51:40.858Z,12.70
2019-06-08T04:54:13.582Z,12.80
2019-06-08T04:56:40.902Z,12.70
2019-06-08T04:59:09.662Z,12.60
2019-06-08T05:01:38.854Z,12.60
2019-06-08T05:04:07.563Z,12.60
2019-06-08T05:06:36.292Z,12.60
2019-06-08T05:09:07.490Z,12.60
2019-06-08T05:11:36.481Z,12.60
2019-06-08T05:14:08.044Z,12.60
2019-06-08T05:16:36.778Z,12.50
2019-06-08T05:19:05.317Z,12.60
2019-06-08T05:21:33.947Z,12.70
2019-06-08T05:24:02.812Z,12.70
2019-06-08T05:26:31.458Z,12.70
2019-06-08T05:29:00.187Z,12.80
2019-06-08T05:31:28.885Z,12.70
2019-06-08T05:33:57.574Z,12.70
2019-06-08T05:36:29.358Z,12.70
2019-06-08T05:38:57.979Z,12.80
2019-06-08T05:41:26.620Z,12.80
2019-06-08T05:43:55.291Z,12.80
2019-06-08T05:46:23.856Z,12.80
2019-06-08T05:48:52.476Z,12.80
2019-06-08T05:51:21.229Z,12.90
2019-06-08T05:53:50.250Z,13.00
2019-06-08T05:56:19.338Z,13.00
2019-06-08T05:58:48.247Z,13.00
2019-06-08T06:01:17.876Z,13.10
2019-06-08T06:03:46.650Z,13.10
2019-06-08T06:06:24.581Z,13.20
2019-06-08T06:08:53.278Z,13.20
2019-06-08T06:11:22.025Z,13.30
2019-06-08T06:13:51.526Z,13.40
2019-06-08T06:16:20.326Z,13.40
2019-06-08T06:18:49.201Z,13.40
2019-06-08T06:21:17.814Z,13.50
2019-06-08T06:23:47.330Z,13.60
2019-06-08T06:26:16.598Z,13.50
2019-06-08T06:28:49.891Z,13.60
2019-06-08T06:31:18.658Z,13.60
2019-06-08T06:33:47.945Z,13.60
2019-06-08T06:36:16.591Z,13.60
2019-06-08T06:38:45.886Z,13.60
2019-06-08T06:41:14.757Z,13.60
2019-06-08T06:43:43.952Z,13.50
2019-06-08T06:46:22.536Z,13.60
2019-06-08T06:48:57.538Z,13.60
2019-06-08T06:51:26.973Z,13.60
2019-06-08T06:53:55.753Z,13.70
2019-06-08T06:56:25.224Z,13.70
2019-06-08T06:58:53.935Z,13.70
2019-06-08T07:01:22.673Z,13.60
2019-06-08T07:03:52.177Z,13.60
2019-06-08T07:06:20.961Z,13.60
2019-06-08T07:08:50.354Z,13.60
2019-06-08T07:11:23.475Z,13.60
2019-06-08T07:13:56.837Z,13.70
2019-06-08T07:16:36.089Z,13.80
2019-06-08T07:18:58.950Z,14.00
2019-06-08T07:21:41.335Z,14.10
2019-06-08T07:24:02.918Z,14.10
2019-06-08T07:26:31.592Z,14.10
2019-06-08T07:29:00.370Z,14.20
2019-06-08T07:31:44.817Z,14.30
2019-06-08T07:34:08.838Z,14.30
2019-06-08T07:36:37.478Z,14.10
2019-06-08T07:39:07.799Z,14.20
2019-06-08T07:41:41.423Z,14.20
2019-06-08T07:44:10.214Z,14.40
2019-06-08T07:46:38.887Z,14.50
2019-06-08T07:49:07.473Z,14.40
2019-06-08T07:51:36.103Z,14.40
2019-06-08T07:54:04.775Z,14.40
2019-06-08T07:56:33.513Z,14.50
2019-06-08T07:59:02.224Z,14.60
2019-06-08T08:01:36.118Z,14.60
2019-06-08T08:04:01.469Z,14.40
2019-06-08T08:06:30.732Z,14.40
2019-06-08T08:08:59.318Z,14.40
2019-06-08T08:11:28.263Z,14.40
2019-06-08T08:13:57.586Z,14.30
2019-06-08T08:16:37.114Z,14.30
2019-06-08T08:19:05.377Z,14.10
2019-06-08T08:21:40.967Z,14.00
2019-06-08T08:24:09.769Z,13.80
2019-06-08T08:26:39.168Z,13.70
2019-06-08T08:29:08.597Z,13.50
2019-06-08T08:31:37.514Z,13.60
2019-06-08T08:34:08.919Z,13.60
2019-06-08T08:36:38.065Z,13.50
2019-06-08T08:39:08.754Z,13.60
2019-06-08T08:41:39.055Z,13.60
2019-06-08T08:44:12.752Z,13.60
2019-06-08T08:46:41.337Z,13.70
2019-06-08T08:49:13.072Z,13.80
2019-06-08T08:51:40.889Z,14.00
2019-06-08T08:54:09.673Z,14.10
2019-06-08T08:56:38.595Z,14.30
2019-06-08T08:59:10.450Z,14.40
2019-06-08T09:01:39.190Z,14.70
2019-06-08T09:04:08.857Z,14.90
2019-06-08T09:06:38.195Z,15.10
2019-06-08T09:09:08.863Z,15.20
2019-06-08T09:11:38.352Z,15.20
2019-06-08T09:14:14.087Z,15.30
2019-06-08T09:16:40.294Z,15.40
2019-06-08T09:19:08.893Z,15.50
2019-06-08T09:21:38.355Z,15.60
2019-06-08T09:24:07.763Z,15.80
2019-06-08T09:26:38.218Z,15.90
2019-06-08T09:29:10.837Z,16.10
2019-06-08T09:31:39.063Z,16.30
2019-06-08T09:34:14.156Z,16.20
2019-06-08T09:36:40.796Z,16.10
2019-06-08T09:39:13.548Z,16.10
2019-06-08T09:41:47.914Z,16.20
2019-06-08T09:44:18.562Z,16.40
2019-06-08T09:46:48.110Z,16.60
2019-06-08T09:49:18.852Z,16.70
2019-06-08T09:51:48.675Z,16.50
2019-06-08T09:54:18.449Z,16.60
2019-06-08T09:56:47.928Z,16.40
2019-06-08T09:59:18.815Z,16.70
2019-06-08T10:01:47.561Z,17.00
2019-06-08T10:04:16.402Z,17.10
2019-06-08T10:06:56.200Z,17.10
2019-06-08T10:09:28.263Z,17.00
2019-06-08T10:11:59.559Z,16.90
2019-06-08T10:14:28.263Z,16.80
2019-06-08T10:17:00.712Z,16.80
2019-06-08T10:19:28.940Z,16.80
2019-06-08T10:21:58.780Z,16.80
2019-06-08T10:24:27.353Z,16.90
2019-06-08T10:26:59.304Z,16.70
2019-06-08T10:29:30.989Z,16.90
2019-06-08T10:31:59.700Z,17.00
2019-06-08T10:34:29.699Z,17.00
2019-06-08T10:37:03.337Z,17.00
2019-06-08T10:39:28.789Z,17.10
2019-06-08T10:41:59.864Z,16.90
2019-06-08T10:44:28.384Z,16.80
2019-06-08T10:47:00.520Z,16.70
2019-06-08T10:49:28.621Z,16.90
2019-06-08T10:52:01.174Z,16.90
2019-06-08T10:54:28.023Z,16.90
2019-06-08T10:56:59.666Z,16.80
2019-06-08T10:59:28.880Z,16.80
2019-06-08T11:02:00.930Z,16.90
2019-06-08T11:04:28.655Z,16.80
2019-06-08T11:07:01.072Z,16.90
2019-06-08T11:09:28.572Z,16.70
2019-06-08T11:11:58.369Z,16.40
2019-06-08T11:14:27.655Z,16.20
2019-06-08T11:16:56.283Z,16.10
2019-06-08T11:19:26.539Z,16.40
2019-06-08T11:21:58.049Z,16.60
2019-06-08T11:24:25.687Z,16.90
2019-06-08T11:26:57.621Z,17.00
2019-06-08T11:29:27.560Z,17.00
2019-06-08T11:31:55.294Z,16.90
2019-06-08T11:34:34.349Z,16.50
2019-06-08T11:37:03.612Z,15.40
2019-06-08T11:39:41.081Z,14.60
2019-06-08T11:42:12.825Z,14.10
2019-06-08T11:44:40.405Z,13.90
2019-06-08T11:47:12.291Z,13.80
2019-06-08T11:49:39.338Z,14.10
2019-06-08T11:52:09.064Z,14.40
2019-06-08T11:54:40.851Z,14.60
2019-06-08T11:57:11.111Z,14.90
2019-06-08T11:59:40.322Z,14.80
2019-06-08T12:02:11.121Z,14.60
2019-06-08T12:04:39.286Z,14.80
2019-06-08T12:07:09.530Z,15.30
2019-06-08T12:09:38.047Z,15.70
2019-06-08T12:12:13.569Z,15.70
2019-06-08T12:14:40.534Z,15.50
2019-06-08T12:17:12.472Z,14.80
2019-06-08T12:19:39.110Z,14.10
2019-06-08T12:22:08.787Z,13.80
2019-06-08T12:24:42.070Z,13.90
2019-06-08T12:27:21.731Z,14.10
2019-06-08T12:29:38.646Z,14.60
2019-06-08T12:32:09.381Z,15.20
2019-06-08T12:34:38.404Z,15.40
2019-06-08T12:37:08.794Z,15.20
2019-06-08T12:39:39.265Z,15.10
2019-06-08T12:42:13.880Z,15.10
2019-06-08T12:44:38.430Z,15.20
2019-06-08T12:47:10.617Z,15.10
2019-06-08T12:49:39.982Z,15.00
2019-06-08T12:52:09.908Z,15.20
2019-06-08T12:54:38.207Z,15.80
2019-06-08T12:57:10.165Z,16.30
2019-06-08T12:59:38.474Z,16.90
2019-06-08T13:02:13.967Z,17.40
2019-06-08T13:04:39.191Z,17.60
2019-06-08T13:07:09.702Z,17.90
2019-06-08T13:09:38.500Z,17.80
2019-06-08T13:12:08.045Z,18.00
2019-06-08T13:14:38.572Z,18.40
2019-06-08T13:17:08.649Z,18.90
2019-06-08T13:19:38.681Z,18.40
2019-06-08T13:22:08.800Z,17.80
2019-06-08T13:24:37.872Z,17.30
2019-06-08T13:27:07.001Z,17.10
2019-06-08T13:29:35.490Z,16.60
2019-06-08T13:32:04.179Z,16.40
2019-06-08T13:34:32.901Z,15.70
2019-06-08T13:37:01.517Z,15.30
2019-06-08T13:39:30.584Z,15.10
2019-06-08T13:41:59.251Z,15.40
2019-06-08T13:44:28.012Z,15.90
2019-06-08T13:46:57.861Z,16.30
2019-06-08T13:49:29.606Z,16.80
2019-06-08T13:51:58.375Z,16.90
2019-06-08T13:54:28.525Z,16.90
2019-06-08T13:56:58.932Z,17.10
2019-06-08T13:59:30.801Z,17.40
2019-06-08T14:01:58.736Z,17.70
2019-06-08T14:04:27.623Z,17.80
2019-06-08T14:06:57.943Z,17.70
2019-06-08T14:09:28.587Z,17.90
2019-06-08T14:12:00.859Z,18.00
2019-06-08T14:14:29.382Z,18.20
2019-06-08T14:16:58.710Z,18.30
2019-06-08T14:19:31.071Z,18.60
2019-06-08T14:21:58.119Z,18.80
2019-06-08T14:24:32.133Z,18.50
2019-06-08T14:26:58.433Z,18.30
2019-06-08T14:29:28.845Z,18.20
2019-06-08T14:31:57.894Z,18.20
2019-06-08T14:34:29.046Z,18.60
2019-06-08T14:36:59.436Z,18.60
2019-06-08T14:39:30.017Z,18.90
2019-06-08T14:41:57.927Z,19.20
2019-06-08T14:44:28.754Z,19.40
2019-06-08T14:46:57.930Z,18.80
2019-06-08T14:49:33.859Z,18.40
2019-06-08T14:51:57.918Z,18.60
2019-06-08T14:54:32.764Z,18.90
2019-06-08T14:56:57.795Z,19.00
2019-06-08T14:59:29.598Z,18.90
2019-06-08T15:01:56.963Z,18.70
2019-06-08T15:04:28.526Z,18.60
2019-06-08T15:06:58.460Z,18.60
2019-06-08T15:09:26.157Z,18.70
2019-06-08T15:11:58.259Z,18.70
2019-06-08T15:14:29.336Z,18.60
2019-06-08T15:16:58.889Z,18.50
2019-06-08T15:19:29.032Z,18.90
2019-06-08T15:21:57.462Z,19.20
2019-06-08T15:24:29.261Z,19.40
2019-06-08T15:26:58.318Z,19.40
2019-06-08T15:29:29.069Z,19.20
2019-06-08T15:31:58.197Z,18.80
2019-06-08T15:34:29.596Z,18.50
2019-06-08T15:36:57.615Z,18.10
2019-06-08T15:39:29.056Z,17.70
2019-06-08T15:41:59.949Z,17.80
2019-06-08T15:44:29.085Z,18.10
2019-06-08T15:46:58.495Z,18.10
2019-06-08T15:49:30.363Z,18.10
2019-06-08T15:51:57.983Z,18.30
2019-06-08T15:54:32.260Z,18.30
2019-06-08T15:56:58.495Z,18.60
2019-06-08T15:59:31.202Z,18.70
2019-06-08T16:01:57.881Z,18.60
2019-06-08T16:04:27.697Z,18.40
2019-06-08T16:06:56.590Z,17.90
2019-06-08T16:09:25.949Z,18.00
2019-06-08T16:11:54.586Z,18.10
2019-06-08T16:14:24.819Z,17.90
2019-06-08T16:16:53.800Z,17.90
2019-06-08T16:19:22.331Z,17.80
2019-06-08T16:21:51.287Z,17.60
2019-06-08T16:24:19.998Z,17.80
2019-06-08T16:26:53.410Z,18.10
2019-06-08T16:29:18.750Z,18.20
2019-06-08T16:31:47.458Z,18.50
2019-06-08T16:34:15.990Z,18.20
2019-06-08T16:36:44.564Z,17.90
2019-06-08T16:39:13.158Z,17.90
2019-06-08T16:41:41.738Z,17.80
2019-06-08T16:44:10.308Z,17.50
2019-06-08T16:46:38.951Z,17.40
2019-06-08T16:49:07.494Z,17.50
2019-06-08T16:51:36.118Z,17.70
2019-06-08T16:54:05.119Z,17.70
2019-06-08T16:56:34.175Z,17.80
2019-06-08T16:59:03.009Z,17.90
2019-06-08T17:01:32.912Z,17.80
2019-06-08T17:04:01.879Z,17.80
2019-06-08T17:06:31.170Z,17.50
2019-06-08T17:08:59.890Z,17.50
2019-06-08T17:11:29.583Z,17.30
2019-06-08T17:13:58.636Z,17.40
2019-06-08T17:16:30.013Z,17.40
2019-06-08T17:18:59.017Z,17.40
2019-06-08T17:21:28.012Z,17.40
2019-06-08T17:23:57.656Z,17.40
2019-06-08T17:26:26.788Z,17.40
2019-06-08T17:28:55.927Z,17.40
2019-06-08T17:31:26.632Z,17.40
2019-06-08T17:33:57.858Z,17.30
2019-06-08T17:36:26.492Z,17.40
2019-06-08T17:38:55.556Z,17.40
2019-06-08T17:41:24.391Z,17.30
2019-06-08T17:43:53.137Z,17.20
2019-06-08T17:46:21.908Z,17.30
2019-06-08T17:48:50.683Z,17.30
2019-06-08T17:51:19.413Z,17.20
2019-06-08T17:53:48.235Z,17.00
2019-06-08T17:56:17.954Z,16.90
2019-06-08T17:58:46.726Z,17.00
2019-06-08T18:01:16.171Z,17.00
2019-06-08T18:03:45.121Z,16.80
2019-06-08T18:06:13.826Z,16.80
2019-06-08T18:09:07.890Z,16.80
2019-06-08T18:11:40.127Z,16.80
2019-06-08T18:14:07.915Z,16.90
2019-06-08T18:16:39.396Z,16.80
2019-06-08T18:19:08.846Z,16.80
2019-06-08T18:21:40.075Z,16.90
2019-06-08T18:24:08.323Z,16.80
2019-06-08T18:26:40.252Z,16.80
2019-06-08T18:29:09.072Z,16.80
2019-06-08T18:31:40.286Z,16.70
2019-06-08T18:34:08.473Z,16.70
2019-06-08T18:36:40.382Z,16.70
2019-06-08T18:39:08.712Z,16.60
2019-06-08T18:41:39.346Z,16.60
2019-06-08T18:44:08.470Z,16.70
2019-06-08T18:46:37.983Z,16.50
2019-06-08T18:49:08.862Z,16.50
2019-06-08T18:51:40.692Z,16.50
2019-06-08T18:54:14.769Z,16.50
2019-06-08T18:56:48.858Z,16.40
2019-06-08T18:59:18.464Z,16.60
2019-06-08T19:01:50.880Z,16.60
2019-06-08T19:04:19.966Z,16.50
2019-06-08T19:06:50.156Z,16.40
2019-06-08T19:09:19.179Z,16.40
2019-06-08T19:11:57.325Z,16.30
2019-06-08T19:14:28.468Z,16.20
2019-06-08T19:16:58.133Z,16.10
2019-06-08T19:19:31.456Z,16.20
2019-06-08T19:22:02.795Z,16.10
2019-06-08T19:24:31.686Z,16.00
2019-06-08T19:27:00.866Z,16.00
2019-06-08T19:29:30.175Z,16.00
2019-06-08T19:32:00.598Z,15.90
2019-06-08T19:34:33.214Z,16.00
2019-06-08T19:37:01.134Z,16.00
2019-06-08T19:39:33.252Z,15.80
2019-06-08T19:42:02.462Z,15.70
2019-06-08T19:44:32.118Z,15.70
2019-06-08T19:47:01.357Z,15.60
2019-06-08T19:49:30.545Z,15.60
2019-06-08T19:51:59.508Z,15.60
2019-06-08T19:54:28.520Z,15.50
2019-06-08T19:56:57.715Z,15.40
2019-06-08T19:59:33.450Z,15.50
2019-06-08T20:02:08.637Z,15.30
2019-06-08T20:04:38.754Z,15.40
2019-06-08T20:07:20.392Z,15.30
2019-06-08T20:09:49.704Z,15.30
2019-06-08T20:12:19.686Z,15.30
2019-06-08T20:14:50.997Z,15.20
2019-06-08T20:17:19.483Z,15.20
2019-06-08T20:19:50.468Z,15.10
2019-06-08T20:22:19.040Z,15.00
2019-06-08T20:24:52.083Z,15.00
2019-06-08T20:27:18.468Z,15.30
2019-06-08T20:29:48.257Z,15.30
2019-06-08T20:32:24.066Z,15.30
2019-06-08T20:34:54.207Z,15.10
2019-06-08T20:37:28.238Z,15.10
2019-06-08T20:40:07.105Z,15.10
2019-06-08T20:42:28.918Z,14.90
2019-06-08T20:45:02.319Z,14.80
2019-06-08T20:47:35.436Z,14.90
2019-06-08T20:50:03.750Z,14.90
2019-06-08T20:52:33.702Z,14.90
2019-06-08T20:55:04.169Z,15.00
2019-06-08T20:57:33.060Z,15.00
2019-06-08T21:00:08.442Z,15.00
2019-06-08T21:02:32.680Z,14.90
2019-06-08T21:05:01.487Z,15.00
2019-06-08T21:07:30.492Z,14.90
2019-06-08T21:09:59.508Z,14.90
2019-06-08T21:12:28.870Z,14.90
2019-06-08T21:14:57.429Z,14.90
2019-06-08T21:17:27.542Z,14.80
2019-06-08T21:19:57.937Z,14.90
2019-06-08T21:22:27.761Z,14.80
2019-06-08T21:24:59.755Z,14.60
2019-06-08T21:27:27.690Z,14.50
2019-06-08T21:30:06.042Z,14.20
2019-06-08T21:32:27.820Z,14.20
2019-06-08T21:34:59.981Z,14.20
2019-06-08T21:37:28.054Z,14.20
2019-06-08T21:40:03.164Z,14.20
2019-06-08T21:42:27.799Z,14.20
2019-06-08T21:45:00.001Z,14.10
2019-06-08T21:47:27.184Z,14.20
2019-06-08T21:49:59.217Z,14.10
2019-06-08T21:52:26.043Z,14.10
2019-06-08T21:54:54.653Z,14.00
2019-06-08T21:57:23.206Z,14.20
2019-06-08T22:00:06.991Z,14.00
2019-06-08T22:02:27.262Z,13.90
2019-06-08T22:05:00.776Z,13.80
2019-06-08T22:07:28.255Z,13.80
2019-06-08T22:09:58.779Z,13.70
2019-06-08T22:12:26.738Z,13.80
2019-06-08T22:14:55.236Z,13.80
2019-06-08T22:17:23.693Z,13.90
2019-06-08T22:19:55.049Z,13.90
2019-06-08T22:22:24.372Z,13.90
2019-06-08T22:24:53.457Z,13.90
2019-06-08T22:27:22.717Z,13.80
2019-06-08T22:29:53.371Z,13.80
2019-06-08T22:32:22.647Z,13.70
2019-06-08T22:34:52.783Z,13.80
2019-06-08T22:37:21.928Z,13.70
2019-06-08T22:39:51.429Z,13.60
2019-06-08T22:42:20.313Z,13.60
2019-06-08T22:44:49.737Z,13.70
2019-06-08T22:47:18.541Z,13.60
2019-06-08T22:49:47.679Z,13.50
2019-06-08T22:52:18.502Z,13.50
2019-06-08T22:54:49.519Z,13.40
2019-06-08T22:57:18.401Z,13.40
2019-06-08T22:59:47.712Z,13.30
2019-06-08T23:02:18.259Z,13.40
2019-06-08T23:04:47.552Z,13.50
2019-06-08T23:07:28.375Z,13.40
2019-06-08T23:09:47.858Z,13.40
2019-06-08T23:12:18.178Z,13.50
2019-06-08T23:14:47.181Z,13.50
2019-06-08T23:17:17.862Z,13.60
2019-06-08T23:19:48.071Z,13.40
2019-06-08T23:22:17.726Z,13.40
2019-06-08T23:24:47.720Z,13.30
2019-06-08T23:27:17.585Z,13.30
2019-06-08T23:29:47.499Z,13.40
2019-06-08T23:32:18.202Z,13.30
2019-06-08T23:34:47.791Z,13.30
2019-06-08T23:37:18.264Z,13.50
2019-06-08T23:39:47.210Z,13.40
2019-06-08T23:42:17.715Z,13.40
2019-06-08T23:44:47.156Z,13.60
2019-06-08T23:47:17.836Z,13.60
2019-06-08T23:49:47.424Z,13.40
2019-06-08T23:52:17.806Z,13.20
2019-06-08T23:54:47.779Z,13.20
2019-06-08T23:57:18.032Z,13.20
2019-06-08T23:59:47.795Z,13.20
